Time;durP1;ratioP1;P1;durP2;ratioP2;P2;SDS_P1;SDS_P2;PMS_P1;PMS_P2;Temp;Humidity;BMP_temperature;BMP_pressure;BME280_temperature;BME280_humidity;BME280_pressure;Samples;Min_cycle;Max_cycle;Signal;HPM_P1;HPM_P2
2023/04/18 00:00:24;;;;;;;19.40;10.70;;;;;;;5.87;95.11;101176.93;108933;1259;71515;-73
2023/04/18 00:03:15;;;;;;;17.90;9.90;;;;;;;5.87;94.98;101177.45;108976;1261;58376;-72
2023/04/18 00:06:03;;;;;;;19.50;9.60;;;;;;;5.88;95.09;101178.64;108902;1260;60545;-71
2023/04/18 00:08:49;;;;;;;19.70;10.10;;;;;;;5.89;95.17;101178.26;108847;1259;72248;-71
2023/04/18 00:11:35;;;;;;;20.00;10.10;;;;;;;5.90;95.48;101178.55;108960;1259;66291;-71
2023/04/18 00:14:22;;;;;;;17.70;10.00;;;;;;;5.91;95.49;101178.88;108210;1259;1015684;-71
2023/04/18 00:17:09;;;;;;;21.50;11.70;;;;;;;5.91;95.41;101183.27;108925;1259;57499;-70
2023/04/18 00:19:57;;;;;;;20.30;11.30;;;;;;;5.93;95.60;101180.72;108905;1258;58945;-71
2023/04/18 00:22:45;;;;;;;20.90;10.90;;;;;;;5.96;95.43;101185.02;108936;1260;72319;-71
2023/04/18 00:25:32;;;;;;;22.00;10.40;;;;;;;5.97;95.54;101183.40;108858;1260;66320;-69
2023/04/18 00:28:18;;;;;;;17.80;10.80;;;;;;;5.98;95.66;101187.95;108955;1260;70101;-71
2023/04/18 00:31:04;;;;;;;23.00;10.90;;;;;;;6.01;95.59;101185.77;108886;1257;58182;-73
2023/04/18 00:33:51;;;;;;;23.30;12.10;;;;;;;6.03;95.40;101187.95;108931;1257;60450;-73
2023/04/18 00:36:37;;;;;;;19.70;11.20;;;;;;;6.07;95.46;101190.60;109042;1256;70934;-72
2023/04/18 00:39:25;;;;;;;20.10;11.50;;;;;;;6.10;95.47;101191.86;108986;1256;68019;-72
2023/04/18 00:42:12;;;;;;;17.50;10.00;;;;;;;6.14;95.32;101189.61;109070;1256;72758;-71
2023/04/18 00:45:00;;;;;;;19.70;10.00;;;;;;;6.16;95.29;101193.23;109077;1256;56877;-71
2023/04/18 00:47:47;;;;;;;24.40;11.30;;;;;;;6.13;95.33;101190.15;109184;1256;59080;-72
2023/04/18 00:50:35;;;;;;;23.60;12.20;;;;;;;6.09;95.50;101184.35;109048;1256;72382;-72
2023/04/18 00:53:22;;;;;;;21.10;10.80;;;;;;;6.10;95.50;101192.08;109168;1253;67867;-72
2023/04/18 00:56:09;;;;;;;20.40;12.40;;;;;;;6.09;95.88;101190.36;109255;1253;71285;-72
2023/04/18 00:58:56;;;;;;;24.00;12.70;;;;;;;6.06;95.81;101190.28;109447;1253;57735;-72
2023/04/18 01:01:44;;;;;;;23.90;12.50;;;;;;;6.04;96.17;101188.44;109208;1254;60102;-73
2023/04/18 01:04:31;;;;;;;20.70;12.80;;;;;;;6.06;96.31;101195.04;109304;1254;71386;-72
2023/04/18 01:07:18;;;;;;;24.20;12.90;;;;;;;6.05;96.09;101198.10;109241;1254;68857;-71
2023/04/18 01:10:05;;;;;;;22.40;13.00;;;;;;;6.06;96.47;101198.94;109316;1254;72579;-71
2023/04/18 01:13:19;;;;;;;25.10;12.70;;;;;;;6.07;96.60;101202.23;109270;1253;59663;-71
2023/04/18 01:16:06;;;;;;;24.70;13.20;;;;;;;6.09;96.42;101197.73;108510;1254;1003066;-71
2023/04/18 01:18:52;;;;;;;28.90;13.80;;;;;;;6.09;96.32;101199.33;109340;1254;69982;-73
2023/04/18 01:21:42;;;;;;;23.10;12.50;;;;;;;6.09;96.56;101198.62;109266;1253;66567;-73
2023/04/18 01:24:32;;;;;;;22.40;12.10;;;;;;;6.09;96.79;101198.28;109169;1254;70571;-73
2023/04/18 01:27:18;;;;;;;24.40;13.00;;;;;;;6.06;96.40;101195.02;109230;1254;58047;-74
2023/04/18 01:30:06;;;;;;;26.30;12.70;;;;;;;6.05;96.75;101194.00;109286;1254;58992;-74
2023/04/18 01:32:53;;;;;;;22.10;12.70;;;;;;;6.06;97.00;101191.30;109262;1253;71992;-72
2023/04/18 01:35:40;;;;;;;22.80;13.20;;;;;;;6.06;96.75;101193.45;109287;1254;66720;-72
2023/04/18 01:38:26;;;;;;;24.90;12.50;;;;;;;6.04;97.13;101190.19;109229;1254;70462;-71
2023/04/18 01:41:14;;;;;;;24.30;11.70;;;;;;;6.02;97.12;101189.23;109288;1254;56953;-72
2023/04/18 01:44:01;;;;;;;22.70;12.70;;;;;;;5.99;97.35;101190.23;109194;1253;60401;-72
2023/04/18 01:46:47;;;;;;;27.30;13.50;;;;;;;5.97;97.57;101191.86;109188;1254;72240;-72
2023/04/18 01:49:34;;;;;;;21.60;12.70;;;;;;;5.96;97.46;101188.38;108459;1254;1002208;-71
2023/04/18 01:52:22;;;;;;;25.70;13.00;;;;;;;5.94;97.47;101188.45;109159;1254;72556;-72
2023/04/18 01:55:11;;;;;;;25.60;14.10;;;;;;;5.92;98.10;101187.29;109227;1253;59477;-73
2023/04/18 01:57:57;;;;;;;24.20;13.90;;;;;;;5.92;97.78;101189.59;109266;1254;60348;-74
2023/04/18 02:00:44;;;;;;;28.90;14.00;;;;;;;5.93;98.01;101189.89;109066;1254;72827;-73
2023/04/18 02:03:31;;;;;;;26.90;13.70;;;;;;;5.95;98.37;101185.24;109255;1254;68613;-73
2023/04/18 02:06:18;;;;;;;24.70;12.10;;;;;;;5.96;98.43;101183.06;109169;1253;71528;-72
2023/04/18 02:09:07;;;;;;;23.00;14.10;;;;;;;5.98;98.24;101178.81;109286;1253;59334;-73
2023/04/18 02:11:58;;;;;;;23.70;13.80;;;;;;;5.97;98.19;101178.30;109267;1253;59769;-73
2023/04/18 02:14:44;;;;;;;26.20;14.10;;;;;;;5.97;98.38;101180.22;109291;1253;70971;-72
2023/04/18 02:17:30;;;;;;;22.30;13.20;;;;;;;5.97;98.58;101180.24;109279;1253;66382;-73
2023/04/18 02:20:16;;;;;;;27.00;14.90;;;;;;;5.95;98.76;101180.48;109277;1253;72762;-71
2023/04/18 02:23:03;;;;;;;23.70;13.60;;;;;;;5.94;98.74;101182.46;109220;1254;57487;-72
2023/04/18 02:25:49;;;;;;;21.60;12.00;;;;;;;5.90;98.89;101179.10;109294;1253;60276;-72
2023/04/18 02:28:37;;;;;;;24.70;13.80;;;;;;;5.86;99.46;101176.61;109201;1253;72037;-72
2023/04/18 02:31:24;;;;;;;21.80;12.50;;;;;;;5.82;99.43;101173.77;108474;1253;1002367;-73
2023/04/18 02:34:11;;;;;;;24.40;14.70;;;;;;;5.83;99.47;101173.42;109261;1254;71326;-75
2023/04/18 02:36:59;;;;;;;26.70;13.40;;;;;;;5.79;99.85;101175.30;109305;1254;57932;-72
2023/04/18 02:39:46;;;;;;;25.40;13.90;;;;;;;5.73;99.96;101173.42;109112;1257;59843;-73
2023/04/18 02:42:33;;;;;;;23.80;13.00;;;;;;;5.69;100.00;101170.23;109059;1255;72285;-71
2023/04/18 02:45:20;;;;;;;22.10;12.70;;;;;;;5.68;100.00;101175.93;109275;1256;67629;-73
2023/04/18 02:48:06;;;;;;;27.60;14.30;;;;;;;5.67;100.00;101167.15;109187;1256;72407;-71
2023/04/18 02:51:02;;;;;;;25.90;14.00;;;;;;;5.65;100.00;101167.42;109095;1257;57210;-70
2023/04/18 02:53:53;;;;;;;24.10;13.10;;;;;;;5.62;100.00;101167.86;109162;1256;60445;-70
2023/04/18 02:56:41;;;;;;;23.00;14.00;;;;;;;5.60;100.00;101170.40;109130;1255;70958;-71
2023/04/18 02:59:34;;;;;;;25.30;14.10;;;;;;;5.59;100.00;101167.13;109040;1255;66854;-71
2023/04/18 03:02:48;;;;;;;26.00;14.00;;;;;;;5.57;100.00;101167.02;109095;1255;72634;-70
2023/04/18 03:05:46;;;;;;;22.60;13.00;;;;;;;5.55;100.00;101166.38;109089;1255;58174;-71
2023/04/18 03:08:33;;;;;;;22.40;13.20;;;;;;;5.53;100.00;101165.59;109167;1256;60461;-69
2023/04/18 03:11:21;;;;;;;26.60;13.70;;;;;;;5.50;100.00;101170.10;109249;1254;70891;-70
2023/04/18 03:14:07;;;;;;;26.20;14.90;;;;;;;5.49;100.00;101169.61;109241;1253;67939;-74
2023/04/18 03:17:00;;;;;;;23.80;14.20;;;;;;;5.47;100.00;101169.86;109228;1253;72743;-72
2023/04/18 03:19:51;;;;;;;26.10;14.60;;;;;;;5.46;100.00;101172.55;109274;1253;59572;-72
2023/04/18 03:22:42;;;;;;;29.00;14.70;;;;;;;5.46;100.00;101177.14;109180;1253;60395;-72
2023/04/18 03:25:30;;;;;;;24.60;15.20;;;;;;;5.47;100.00;101175.48;109185;1253;72181;-71
2023/04/18 03:28:19;;;;;;;24.50;14.20;;;;;;;5.50;100.00;101177.33;109342;1253;66889;-71
2023/04/18 03:31:06;;;;;;;26.60;15.10;;;;;;;5.52;100.00;101178.66;109216;1256;72478;-71
2023/04/18 03:33:54;;;;;;;24.50;13.50;;;;;;;5.55;100.00;101183.83;109233;1254;59519;-72
2023/04/18 03:36:40;;;;;;;28.80;14.90;;;;;;;5.58;100.00;101184.59;109263;1253;59118;-69
2023/04/18 03:39:28;;;;;;;25.70;15.10;;;;;;;5.59;100.00;101182.60;109167;1254;70935;-72
2023/04/18 03:42:15;;;;;;;27.20;15.90;;;;;;;5.63;100.00;101183.70;109182;1253;67870;-71
2023/04/18 03:45:02;;;;;;;26.50;14.90;;;;;;;5.65;100.00;101183.80;109274;1253;72563;-72
2023/04/18 03:47:50;;;;;;;26.60;13.90;;;;;;;5.69;100.00;101181.36;109189;1253;58072;-71
2023/04/18 03:50:37;;;;;;;26.40;13.60;;;;;;;5.70;100.00;101182.88;109157;1253;58948;-71
2023/04/18 03:53:31;;;;;;;26.00;15.00;;;;;;;5.72;100.00;101183.33;109125;1253;71056;-71
2023/04/18 03:56:18;;;;;;;27.80;14.80;;;;;;;5.74;100.00;101186.77;109456;1252;68083;-71
2023/04/18 03:59:11;;;;;;;26.40;14.90;;;;;;;5.77;100.00;101192.66;109314;1252;72774;-71
2023/04/18 04:01:58;;;;;;;27.80;14.50;;;;;;;5.76;100.00;101183.69;109249;1253;59351;-71
2023/04/18 04:04:46;;;;;;;23.10;14.10;;;;;;;5.80;100.00;101185.65;109239;1254;58823;-71
2023/04/18 04:07:32;;;;;;;22.80;13.60;;;;;;;5.81;100.00;101186.14;109220;1254;72062;-70
2023/04/18 04:10:20;;;;;;;22.90;13.60;;;;;;;5.79;100.00;101187.29;109145;1253;66587;-72
2023/04/18 04:13:07;;;;;;;24.30;13.50;;;;;;;5.76;100.00;101188.27;109224;1253;71850;-70
2023/04/18 04:15:55;;;;;;;22.50;13.50;;;;;;;5.75;100.00;101188.66;109174;1254;59692;-71
2023/04/18 04:18:42;;;;;;;25.00;14.40;;;;;;;5.75;100.00;101189.54;109212;1253;58227;-71
2023/04/18 04:21:31;;;;;;;19.80;13.00;;;;;;;5.75;100.00;101197.64;109287;1253;71964;-72
2023/04/18 04:24:19;;;;;;;24.70;12.90;;;;;;;5.73;100.00;101198.42;109246;1253;67652;-69
2023/04/18 04:27:06;;;;;;;21.20;12.40;;;;;;;5.73;100.00;101205.48;109186;1253;70334;-73
2023/04/18 04:29:56;;;;;;;22.10;12.20;;;;;;;5.74;100.00;101201.77;109049;1256;59434;-72
2023/04/18 04:32:44;;;;;;;19.80;11.20;;;;;;;5.75;100.00;101204.87;109029;1256;60409;-70
2023/04/18 04:35:33;;;;;;;23.00;13.20;;;;;;;5.77;100.00;101208.68;109172;1256;71906;-70
2023/04/18 04:38:24;;;;;;;22.90;13.10;;;;;;;5.82;100.00;101207.07;109062;1256;65640;-71
2023/04/18 04:41:13;;;;;;;24.50;12.60;;;;;;;5.87;100.00;101209.53;109063;1256;71283;-70
2023/04/18 04:44:00;;;;;;;19.80;11.50;;;;;;;5.92;100.00;101207.37;108946;1257;58689;-75
2023/04/18 04:46:56;;;;;;;21.30;11.90;;;;;;;5.98;100.00;101211.73;108825;1262;60184;-75
2023/04/18 04:49:48;;;;;;;20.20;12.00;;;;;;;6.05;100.00;101211.63;108725;1266;71228;-77
2023/04/18 04:52:35;;;;;;;22.90;12.20;;;;;;;6.16;100.00;101216.85;108773;1262;66377;-75
2023/04/18 04:55:21;;;;;;;23.00;12.80;;;;;;;6.22;100.00;101221.02;108755;1262;72659;-78
2023/04/18 04:58:10;;;;;;;23.10;12.70;;;;;;;6.28;100.00;101219.33;108767;1265;59460;-77
2023/04/18 05:01:15;;;;;;;22.90;12.90;;;;;;;6.36;100.00;101220.24;108783;1260;60506;-75
2023/04/18 05:04:03;;;;;;;26.40;12.80;;;;;;;6.53;100.00;101221.66;108786;1260;72169;-75
2023/04/18 05:06:50;;;;;;;25.10;13.10;;;;;;;6.64;100.00;101218.73;108823;1260;68881;-75
2023/04/18 05:09:38;;;;;;;21.90;12.30;;;;;;;6.73;100.00;101218.34;108698;1260;71462;-76
2023/04/18 05:12:26;;;;;;;19.60;10.90;;;;;;;6.87;99.90;101219.32;108823;1260;57048;-76
2023/04/18 05:15:15;;;;;;;18.00;10.20;;;;;;;6.99;99.03;101215.77;108708;1262;58791;-75
2023/04/18 05:18:01;;;;;;;19.20;12.40;;;;;;;7.07;98.53;101217.20;108844;1259;72380;-76
2023/04/18 05:20:49;;;;;;;24.20;12.50;;;;;;;7.11;98.23;101219.29;108855;1259;66879;-75
2023/04/18 05:23:36;;;;;;;20.00;11.80;;;;;;;7.23;98.02;101224.63;108891;1259;72569;-74
2023/04/18 05:26:24;;;;;;;19.50;11.90;;;;;;;7.32;97.34;101223.15;108871;1259;59543;-75
2023/04/18 05:29:12;;;;;;;22.50;11.80;;;;;;;7.44;96.75;101225.98;108902;1259;60447;-75
2023/04/18 05:32:00;;;;;;;19.60;10.70;;;;;;;7.48;95.88;101225.55;108887;1259;72436;-75
2023/04/18 05:34:48;;;;;;;19.20;11.20;;;;;;;7.55;95.57;101221.94;108860;1259;68150;-71
2023/04/18 05:37:34;;;;;;;22.40;13.00;;;;;;;7.61;95.04;101221.08;108844;1259;73199;-71
2023/04/18 05:40:21;;;;;;;19.40;11.80;;;;;;;7.72;94.82;101222.86;108982;1259;56907;-72
2023/04/18 05:43:07;;;;;;;18.30;11.50;;;;;;;7.86;93.79;101225.38;108881;1259;59544;-72
2023/04/18 05:45:57;;;;;;;17.10;10.60;;;;;;;8.16;92.61;101226.27;109030;1257;72357;-72
2023/04/18 05:48:44;;;;;;;17.70;10.30;;;;;;;8.81;89.74;101224.63;109212;1257;67844;-74
2023/04/18 05:51:30;;;;;;;17.50;9.90;;;;;;;9.72;87.01;101221.88;109131;1257;71296;-70
2023/04/18 05:54:20;;;;;;;16.70;9.30;;;;;;;10.61;82.72;101221.06;108993;1257;58523;-72
2023/04/18 05:57:07;;;;;;;16.00;8.80;;;;;;;11.51;78.87;101223.59;109228;1255;58491;-71
2023/04/18 05:59:55;;;;;;;13.70;8.80;;;;;;;12.34;74.85;101220.92;109085;1255;72333;-69
2023/04/18 06:02:41;;;;;;;13.70;7.70;;;;;;;13.18;71.26;101218.77;109080;1256;67879;-70
2023/04/18 06:05:28;;;;;;;13.20;8.10;;;;;;;13.89;66.24;101213.16;109060;1255;70536;-74
2023/04/18 06:08:15;;;;;;;14.50;7.50;;;;;;;14.62;63.60;101216.33;109165;1256;58058;-71
2023/04/18 06:11:02;;;;;;;13.00;7.30;;;;;;;15.40;61.37;101215.09;109137;1254;59003;-72
2023/04/18 06:13:48;;;;;;;12.30;7.70;;;;;;;16.00;57.03;101207.29;109162;1254;70806;-71
2023/04/18 06:16:36;;;;;;;13.60;7.90;;;;;;;16.64;54.97;101211.57;109173;1254;67817;-72
2023/04/18 06:19:23;;;;;;;12.40;7.20;;;;;;;17.29;51.90;101215.13;109195;1254;71366;-74
2023/04/18 06:22:09;;;;;;;14.10;7.30;;;;;;;18.07;51.48;101208.26;109065;1254;57860;-72
2023/04/18 06:24:59;;;;;;;13.40;7.40;;;;;;;18.79;48.31;101213.11;109098;1254;61389;-71
2023/04/18 06:27:45;;;;;;;12.30;7.50;;;;;;;19.39;47.08;101211.86;109197;1252;70959;-73
2023/04/18 06:30:31;;;;;;;11.80;6.10;;;;;;;20.09;45.22;101200.77;109319;1253;67226;-72
2023/04/18 06:33:18;;;;;;;9.90;5.90;;;;;;;20.68;43.72;101201.82;109368;1256;72733;-72
2023/04/18 06:36:06;;;;;;;11.20;6.20;;;;;;;21.14;41.03;101201.61;109168;1252;56960;-72
2023/04/18 06:38:52;;;;;;;11.90;5.70;;;;;;;21.62;40.51;101206.38;109345;1252;60248;-73
2023/04/18 06:41:38;;;;;;;11.30;6.00;;;;;;;21.96;38.97;101205.75;109506;1252;72508;-72
2023/04/18 06:44:25;;;;;;;10.30;5.80;;;;;;;22.27;37.91;101202.84;109188;1253;67936;-73
2023/04/18 06:47:12;;;;;;;10.20;5.40;;;;;;;22.68;37.23;101201.68;109205;1253;71275;-74
2023/04/18 06:49:58;;;;;;;11.50;5.10;;;;;;;23.00;36.17;101203.80;109348;1252;56918;-73
2023/04/18 06:52:45;;;;;;;10.80;5.90;;;;;;;23.28;35.83;101204.83;109382;1253;60193;-73
2023/04/18 06:55:31;;;;;;;9.00;5.00;;;;;;;23.66;34.83;101207.14;109356;1252;72141;-73
2023/04/18 06:58:18;;;;;;;9.80;4.60;;;;;;;23.60;33.51;101202.93;109389;1254;68095;-72
2023/04/18 07:01:04;;;;;;;9.30;5.30;;;;;;;23.68;33.53;101207.67;109154;1254;71214;-74
2023/04/18 07:03:50;;;;;;;10.40;4.90;;;;;;;23.87;33.25;101204.89;109325;1254;56945;-73
2023/04/18 07:06:37;;;;;;;10.10;5.10;;;;;;;24.11;32.90;101198.73;109397;1254;59086;-74
2023/04/18 07:09:23;;;;;;;8.80;5.10;;;;;;;24.38;32.73;101197.91;109122;1254;72183;-71
2023/04/18 07:12:10;;;;;;;9.60;4.60;;;;;;;24.79;32.17;101197.55;109262;1255;67810;-72
2023/04/18 07:14:56;;;;;;;8.90;4.20;;;;;;;25.28;31.54;101196.36;109180;1254;73001;-74
2023/04/18 07:17:43;;;;;;;9.20;4.60;;;;;;;25.47;29.96;101197.67;109137;1254;56921;-74
2023/04/18 07:20:30;;;;;;;8.70;4.20;;;;;;;25.75;30.02;101193.13;109195;1254;60197;-72
2023/04/18 07:23:17;;;;;;;8.90;4.50;;;;;;;26.23;29.83;101192.05;109148;1254;72223;-75
2023/04/18 07:26:04;;;;;;;9.20;4.30;;;;;;;26.52;28.48;101194.70;109148;1254;66896;-73
2023/04/18 07:28:51;;;;;;;8.30;4.00;;;;;;;26.80;28.26;101192.89;108942;1257;72715;-72
2023/04/18 07:31:37;;;;;;;8.30;4.30;;;;;;;26.92;27.51;101195.77;108986;1257;57623;-72
2023/04/18 07:34:28;;;;;;;10.60;4.70;;;;;;;26.82;26.98;101198.64;109028;1257;58949;-72
2023/04/18 07:37:17;;;;;;;8.90;4.40;;;;;;;26.64;27.18;101202.23;109100;1259;71925;-68
2023/04/18 07:40:05;;;;;;;10.00;4.40;;;;;;;26.52;26.90;101210.73;109102;1257;66425;-77
2023/04/18 07:42:52;;;;;;;7.80;4.40;;;;;;;25.73;27.65;101214.45;108984;1257;71469;-79
2023/04/18 07:45:41;;;;;;;8.00;4.20;;;;;;;24.88;28.63;101214.73;109016;1257;56949;-76
2023/04/18 07:48:28;;;;;;;8.80;4.90;;;;;;;23.57;29.92;101217.73;109025;1257;59053;-79
2023/04/18 07:51:14;;;;;;;9.20;5.20;;;;;;;23.19;31.28;101225.04;109032;1257;72421;-78
2023/04/18 07:54:04;;;;;;;8.40;4.80;;;;;;;22.37;32.16;101221.70;109059;1257;67923;-77
2023/04/18 07:56:51;;;;;;;9.60;5.90;;;;;;;21.76;33.49;101219.48;109029;1257;71973;-76
2023/04/18 07:59:38;;;;;;;13.20;7.00;;;;;;;20.97;34.71;101221.36;109252;1253;56949;-76
2023/04/18 08:02:24;;;;;;;9.80;6.10;;;;;;;20.19;36.46;101226.23;109377;1252;59227;-77
2023/04/18 08:05:11;;;;;;;10.30;6.30;;;;;;;19.72;37.70;101232.50;109385;1252;71124;-77
2023/04/18 08:07:58;;;;;;;11.20;6.00;;;;;;;19.54;38.64;101230.63;109073;1258;66758;-75
2023/04/18 08:10:45;;;;;;;10.10;5.90;;;;;;;19.22;39.08;101230.07;109016;1257;71991;-76
2023/04/18 08:13:31;;;;;;;12.90;6.00;;;;;;;20.30;37.76;101225.08;109099;1257;56878;-77
2023/04/18 08:16:19;;;;;;;10.90;5.70;;;;;;;21.21;36.36;101228.30;108907;1259;60409;-80
2023/04/18 08:19:06;;;;;;;10.50;6.30;;;;;;;22.00;35.39;101230.80;109019;1257;70954;-77
2023/04/18 08:21:53;;;;;;;13.30;8.70;;;;;;;22.84;33.87;101234.36;108960;1259;67941;-76
2023/04/18 08:24:40;;;;;;;10.00;6.00;;;;;;;23.40;31.89;101237.34;108877;1259;71462;-78
2023/04/18 08:27:37;;;;;;;10.50;5.80;;;;;;;23.25;31.94;101237.02;108836;1260;57522;-78
2023/04/18 08:30:25;;;;;;;9.60;5.70;;;;;;;23.50;32.11;101233.59;108973;1260;60421;-77
2023/04/18 08:33:12;;;;;;;8.60;4.60;;;;;;;23.97;31.33;101237.96;108902;1259;70865;-72
2023/04/18 08:35:58;;;;;;;9.40;4.80;;;;;;;24.03;31.08;101242.39;109027;1259;67914;-72
2023/04/18 08:38:45;;;;;;;8.40;4.60;;;;;;;24.51;30.54;101236.41;109016;1256;71077;-73
2023/04/18 08:41:39;;;;;;;9.20;4.70;;;;;;;24.87;30.05;101240.49;109056;1256;57377;-72
2023/04/18 08:44:29;;;;;;;9.50;5.10;;;;;;;25.28;29.11;101238.53;109128;1256;60255;-73
2023/04/18 08:47:16;;;;;;;9.30;4.50;;;;;;;25.73;28.90;101241.70;109137;1256;73182;-72
2023/04/18 08:50:03;;;;;;;8.30;4.50;;;;;;;25.97;28.53;101235.27;109089;1256;66408;-73
2023/04/18 08:52:53;;;;;;;9.30;5.10;;;;;;;26.24;27.84;101234.79;109282;1253;72665;-72
2023/04/18 08:55:40;;;;;;;10.50;4.80;;;;;;;26.46;27.46;101240.38;109220;1253;56883;-71
2023/04/18 08:58:31;;;;;;;8.40;4.30;;;;;;;26.30;27.23;101229.65;109623;1252;60449;-72
2023/04/18 09:01:17;;;;;;;10.60;4.50;;;;;;;26.13;27.61;101243.80;109322;1252;72024;-72
2023/04/18 09:04:04;;;;;;;9.30;5.20;;;;;;;25.69;28.07;101238.93;109093;1256;69149;-76
2023/04/18 09:06:52;;;;;;;8.70;4.80;;;;;;;25.53;28.11;101234.52;109150;1256;72229;-73
2023/04/18 09:09:53;;;;;;;9.70;4.90;;;;;;;25.55;28.08;101234.44;109223;1256;57800;-71
2023/04/18 09:12:51;;;;;;;8.20;4.40;;;;;;;25.24;28.35;101231.37;109129;1256;59680;-72
2023/04/18 09:15:38;;;;;;;9.60;5.00;;;;;;;24.96;28.90;101231.59;109119;1256;72078;-73
2023/04/18 09:18:26;;;;;;;10.50;4.50;;;;;;;25.08;29.25;101231.45;109069;1256;67896;-73
2023/04/18 09:21:20;;;;;;;8.90;4.90;;;;;;;25.35;27.92;101230.77;108956;1256;71210;-71
2023/04/18 09:24:22;;;;;;;8.60;4.40;;;;;;;25.32;28.12;101228.87;109057;1257;58330;-71
2023/04/18 09:27:13;;;;;;;7.80;3.80;;;;;;;25.44;28.15;101227.13;109147;1256;60530;-74
2023/04/18 09:30:00;;;;;;;8.90;4.60;;;;;;;25.93;27.65;101229.46;109087;1256;72063;-71
2023/04/18 09:32:57;;;;;;;9.20;4.60;;;;;;;26.57;26.92;101224.30;109081;1256;67725;-70
2023/04/18 09:35:45;;;;;;;9.00;4.40;;;;;;;26.81;26.63;101225.69;109415;1253;71071;-73
2023/04/18 09:38:39;;;;;;;8.80;5.10;;;;;;;26.93;26.76;101222.54;109261;1252;57841;-70
2023/04/18 09:41:26;;;;;;;7.90;4.20;;;;;;;26.45;26.31;101226.38;109367;1253;60188;-72
2023/04/18 09:44:15;;;;;;;8.80;4.70;;;;;;;25.61;27.22;101229.58;109319;1253;72026;-73
2023/04/18 09:47:02;;;;;;;7.70;4.30;;;;;;;24.80;28.22;101228.31;109614;1252;67894;-71
2023/04/18 09:49:48;;;;;;;8.40;4.50;;;;;;;24.27;28.77;101228.51;109197;1252;71176;-76
2023/04/18 09:52:40;;;;;;;8.50;4.30;;;;;;;23.65;29.41;101231.12;109413;1252;57042;-71
2023/04/18 09:55:28;;;;;;;8.40;4.80;;;;;;;23.11;30.42;101235.98;109345;1253;58807;-74
2023/04/18 09:58:18;;;;;;;10.00;5.00;;;;;;;22.63;31.09;101228.13;109388;1253;70998;-71
2023/04/18 10:01:06;;;;;;;8.00;4.40;;;;;;;21.83;31.96;101233.33;109484;1253;68036;-73
2023/04/18 10:03:54;;;;;;;8.80;4.50;;;;;;;21.14;33.22;101233.58;109573;1253;72643;-72
2023/04/18 10:06:44;;;;;;;8.40;4.70;;;;;;;21.25;33.79;101227.92;109475;1252;57761;-73
2023/04/18 10:09:32;;;;;;;8.60;4.60;;;;;;;20.86;34.08;101220.58;109545;1254;60068;-72
2023/04/18 10:12:18;;;;;;;10.30;5.00;;;;;;;20.58;34.41;101215.98;109300;1253;72278;-71
2023/04/18 10:15:07;;;;;;;8.50;4.80;;;;;;;20.98;33.90;101215.19;109352;1254;67697;-74
2023/04/18 10:18:02;;;;;;;9.10;4.30;;;;;;;22.02;33.04;101214.10;109427;1253;72602;-72
2023/04/18 10:21:00;;;;;;;13.10;7.50;;;;;;;22.22;32.94;101213.23;109392;1253;56869;-72
2023/04/18 10:23:47;;;;;;;12.00;6.00;;;;;;;21.84;33.04;101214.81;109429;1252;58828;-70
2023/04/18 10:26:48;;;;;;;9.70;5.80;;;;;;;21.32;33.99;101218.13;109369;1253;72116;-74
2023/04/18 10:29:52;;;;;;;10.00;5.90;;;;;;;21.34;34.29;101215.20;109392;1253;66758;-74
2023/04/18 10:32:39;;;;;;;10.30;5.30;;;;;;;21.52;34.05;101213.17;109472;1252;72623;-73
2023/04/18 10:35:25;;;;;;;9.10;5.30;;;;;;;21.55;34.10;101212.48;109452;1256;57016;-71
2023/04/18 10:38:16;;;;;;;8.60;5.20;;;;;;;21.30;34.48;101214.05;109511;1254;60345;-73
2023/04/18 10:41:29;;;;;;;10.30;5.80;;;;;;;20.87;35.06;101217.22;109143;1253;72276;-71
2023/04/18 10:44:18;;;;;;;11.30;6.00;;;;;;;20.17;35.94;101215.23;109591;1253;67218;-69
2023/04/18 10:47:28;;;;;;;10.10;6.00;;;;;;;19.54;36.95;101219.83;109528;1252;72485;-73
2023/04/18 10:50:16;;;;;;;11.30;6.00;;;;;;;19.03;38.10;101223.27;109010;1259;57061;-76
2023/04/18 10:53:02;;;;;;;9.80;6.40;;;;;;;18.70;39.15;101216.84;108974;1259;59168;-72
2023/04/18 10:55:54;;;;;;;11.20;6.70;;;;;;;18.73;39.52;101225.84;108969;1258;72267;-72
2023/04/18 10:58:43;;;;;;;11.70;6.60;;;;;;;18.96;39.39;101223.23;108995;1258;67684;-72
2023/04/18 11:01:31;;;;;;;10.70;6.90;;;;;;;18.90;39.60;101222.16;108806;1262;72592;-72
2023/04/18 11:04:19;;;;;;;11.70;7.50;;;;;;;19.08;39.45;101221.49;108666;1263;58197;-73
2023/04/18 11:07:06;;;;;;;12.60;7.90;;;;;;;19.04;39.78;101213.48;108846;1262;60230;-72
2023/04/18 11:09:56;;;;;;;12.20;6.90;;;;;;;18.69;40.35;101214.45;108784;1262;70653;-74
2023/04/18 11:12:42;;;;;;;10.90;6.50;;;;;;;18.38;41.70;101211.70;108883;1262;67750;-72
2023/04/18 11:15:28;;;;;;;10.60;6.70;;;;;;;18.29;42.01;101211.83;108640;1262;72650;-71
2023/04/18 11:18:17;;;;;;;12.10;7.80;;;;;;;18.42;42.43;101211.37;108852;1262;57231;-73
2023/04/18 11:21:04;;;;;;;12.70;7.80;;;;;;;18.32;42.22;101211.04;108824;1262;58853;-71
2023/04/18 11:23:51;;;;;;;13.80;8.60;;;;;;;18.19;42.88;101207.69;108877;1262;72291;-69
2023/04/18 11:26:37;;;;;;;13.00;8.90;;;;;;;17.68;43.40;101204.15;108906;1257;67598;-71
2023/04/18 11:29:24;;;;;;;11.40;7.80;;;;;;;17.56;44.31;101209.23;109116;1257;71454;-70
2023/04/18 11:32:13;;;;;;;12.40;7.50;;;;;;;17.53;44.50;101208.05;109223;1258;57123;-70
2023/04/18 11:34:59;;;;;;;12.90;8.50;;;;;;;17.30;44.96;101206.27;109383;1253;59213;-71
2023/04/18 11:37:45;;;;;;;13.40;9.00;;;;;;;17.14;45.56;101201.94;109372;1253;72312;-73
2023/04/18 11:40:32;;;;;;;15.00;9.40;;;;;;;16.94;46.03;101196.70;109519;1252;66429;-73
2023/04/18 11:43:24;;;;;;;13.00;8.80;;;;;;;16.94;46.54;101200.83;109519;1253;72508;-71
2023/04/18 11:46:12;;;;;;;15.00;10.30;;;;;;;16.86;46.68;101195.90;109580;1252;57834;-72
2023/04/18 11:48:58;;;;;;;15.40;9.40;;;;;;;16.75;47.02;101190.38;109521;1253;59646;-72
2023/04/18 11:51:46;;;;;;;14.70;10.60;;;;;;;16.67;47.56;101191.09;109459;1253;70781;-72
2023/04/18 11:54:40;;;;;;;13.70;9.60;;;;;;;16.35;48.02;101189.37;109613;1254;67374;-70
2023/04/18 11:57:29;;;;;;;13.50;9.20;;;;;;;16.23;48.89;101189.46;109457;1253;71053;-71
2023/04/18 12:00:17;;;;;;;14.50;9.40;;;;;;;16.00;49.40;101189.73;109411;1252;56897;-71
2023/04/18 12:03:09;;;;;;;14.60;8.80;;;;;;;15.54;50.21;101191.60;109489;1254;59053;-76
2023/04/18 12:05:59;;;;;;;13.70;9.00;;;;;;;15.13;51.73;101196.14;109457;1254;70867;-73
2023/04/18 12:08:46;;;;;;;12.90;8.20;;;;;;;14.83;52.67;101201.89;109412;1253;66407;-71
2023/04/18 12:11:33;;;;;;;15.20;8.80;;;;;;;14.48;54.03;101200.40;109441;1253;72838;-71
2023/04/18 12:14:21;;;;;;;14.40;8.70;;;;;;;14.21;55.03;101196.54;109298;1252;56917;-71
2023/04/18 12:17:07;;;;;;;13.30;8.00;;;;;;;14.13;55.74;101194.51;109486;1253;60203;-71
2023/04/18 12:19:54;;;;;;;14.30;8.40;;;;;;;14.13;56.05;101190.02;109469;1252;70644;-72
2023/04/18 12:22:42;;;;;;;13.30;7.70;;;;;;;14.19;55.89;101186.34;109494;1254;66928;-70
2023/04/18 12:25:29;;;;;;;14.30;7.50;;;;;;;14.23;55.92;101183.73;109490;1253;71456;-71
2023/04/18 12:28:18;;;;;;;15.20;7.80;;;;;;;14.24;55.95;101185.84;109490;1253;57005;-71
2023/04/18 12:31:07;;;;;;;16.70;7.90;;;;;;;14.07;56.33;101181.17;109597;1253;59136;-72
2023/04/18 12:33:54;;;;;;;15.70;8.60;;;;;;;14.01;57.01;101177.20;109246;1254;71272;-73
2023/04/18 12:36:41;;;;;;;13.40;7.10;;;;;;;13.84;57.15;101178.04;109497;1254;67315;-71
2023/04/18 12:39:28;;;;;;;15.00;7.30;;;;;;;13.67;58.44;101179.45;109426;1256;71480;-71
2023/04/18 12:42:14;;;;;;;15.30;7.60;;;;;;;13.49;58.82;101177.79;109463;1253;57021;-73
2023/04/18 12:45:06;;;;;;;14.40;7.40;;;;;;;13.49;59.15;101177.42;109623;1256;58895;-72